Melbourne Village, Florida
Current Conditions -  °F | °C
As of 8:53 PM on Friday 28 Nov 2014 (Local Time) from KMLB Reporting Station
Clear Clear  
Wind Chill: 53°   Ceiling: Unl
Heat Index: 53°   Visibility: 10mi
Dew Point: 46°   Wind: 9mph
Humidity: 77%   Direction: 320°NW
Pressure: 30.25"   Gusts: NA
Location:  28.0719°N, 80.7009°W
Report Text: KMLB 290153Z 32008KT 10SM CLR 12/08 A3025 RMK AO2 SLP244 T01170078
Loading
Personal Weather Stations






























Interactive Weather Map New forecast layout! Learn more

10-Day Weather Forecast

Advertisements
Track Severe Weather on mobile